Terminal Aerodrome Forecast
Issued by NWS Cleveland, OH

Home | Current Version | Previous Version | Graphics & Text | Print | Product List | Glossary Off
Versions: 1 2 3 4 5 6 7 8 9 10 11 12 13 14 15 16 17

000
FTUS41 KCLE 251724
TAFTOL
TAF
KTOL 251724Z 2518/2618 26010KT P6SM SCT035 BKN200
     FM252200 29007KT P6SM FEW050
     FM260800 33004KT P6SM SKC
     FM261500 04006KT P6SM FEW035=

USA.gov is the U.S. government's official web portal to all federal, state and local government web resources and services.